Terminal Aerodrome Forecast
Issued by NWS Cleveland, OH

Home | Current Version | Previous Version | Graphics & Text | Print | Product List | Glossary On
Versions: 1 2 3 4 5 6 7 8 9 10 11 12 13 14 15
729
FTUS41 KCLE 251007 AAA
TAFERI
TAF AMD
KERI 251007Z 2510/2606 10006KT P6SM VCSH SCT040 OVC100
      TEMPO 2510/2514 6SM -SHRA SCT025 OVC035
     FM251400 12012G20KT P6SM BKN040
     FM260100 14005KT P6SM BKN040=

USA.gov is the U.S. government's official web portal to all federal, state and local government web resources and services.